Time;durP1;ratioP1;P1;durP2;ratioP2;P2;SDS_P1;SDS_P2;PMS_P1;PMS_P2;Temp;Humidity;BMP_temperature;BMP_pressure;BME280_temperature;BME280_humidity;BME280_pressure;Samples;Min_cycle;Max_cycle;Signal;HPM_P1;HPM_P2
2021/12/11 00:02:01;;;;;;;3.55;2.92;;;;;;;8.37;82.66;99283.63;1765953;80;20931;-55
2021/12/11 00:04:32;;;;;;;3.75;3.40;;;;;;;8.38;82.68;99285.37;1782575;79;20915;-59
2021/12/11 00:07:02;;;;;;;6.40;4.72;;;;;;;8.38;82.67;99285.37;1784967;79;20961;-56
2021/12/11 00:09:36;;;;;;;6.83;5.25;;;;;;;8.38;82.70;99293.42;1768364;80;21512;-57
2021/12/11 00:12:20;;;;;;;7.70;4.70;;;;;;;8.38;82.70;99296.11;1766886;80;21995;-54
2021/12/11 00:14:56;;;;;;;4.12;3.80;;;;;;;8.36;82.69;99294.83;1761752;80;20938;-58
2021/12/11 00:17:29;;;;;;;6.72;4.10;;;;;;;8.38;82.70;99295.64;1786977;79;20896;-58
2021/12/11 00:19:55;;;;;;;4.85;4.42;;;;;;;8.39;82.75;99292.48;1759200;80;20922;-55
2021/12/11 00:22:25;;;;;;;4.92;4.37;;;;;;;8.40;82.79;99293.77;1767938;80;20949;-58
2021/12/11 00:24:52;;;;;;;5.72;5.22;;;;;;;8.39;82.86;99289.34;1764361;80;20982;-58
2021/12/11 00:27:23;;;;;;;8.03;5.58;;;;;;;8.39;82.95;99304.55;1744853;80;21120;-57
2021/12/11 00:29:50;;;;;;;5.30;4.85;;;;;;;8.37;83.00;99291.21;1766308;80;20879;-55
2021/12/11 00:32:24;;;;;;;6.42;4.90;;;;;;;8.37;83.06;99296.58;1761757;80;21404;-56
2021/12/11 00:34:52;;;;;;;;;;;;;;;8.37;83.10;99306.43;1765298;80;20907;-55
2021/12/11 00:37:20;;;;;;;8.53;5.22;;;;;;;8.34;83.20;99286.85;1765806;80;20102;-59
2021/12/11 00:39:53;;;;;;;5.90;4.40;;;;;;;8.32;83.30;99294.59;1768462;79;21527;-55
2021/12/11 00:42:23;;;;;;;7.05;5.83;;;;;;;8.32;83.38;99294.59;1764546;80;20946;-56
2021/12/11 00:44:52;;;;;;;7.35;6.25;;;;;;;8.32;83.50;99290.57;1764413;80;21014;-58
2021/12/11 00:47:23;;;;;;;7.87;6.95;;;;;;;8.32;83.58;99292.78;1763293;80;21086;-55
2021/12/11 00:49:57;;;;;;;8.60;7.60;;;;;;;8.29;83.65;99290.66;1760780;80;21061;-57
2021/12/11 00:52:30;;;;;;;8.47;7.60;;;;;;;8.27;83.71;99296.09;1760399;80;21093;-56
2021/12/11 00:54:56;;;;;;;8.20;5.55;;;;;;;8.24;83.78;99294.05;1764535;80;21834;-58
2021/12/11 00:57:22;;;;;;;8.28;6.33;;;;;;;8.21;83.96;99297.73;1763492;80;21605;-57
2021/12/11 01:00:06;;;;;;;6.28;5.70;;;;;;;8.21;84.09;99304.42;1766948;80;21037;-57
2021/12/11 01:02:32;;;;;;;6.90;6.25;;;;;;;8.19;84.24;99300.94;1764585;80;21491;-58
2021/12/11 01:04:59;;;;;;;7.17;6.08;;;;;;;8.19;84.34;99298.26;1762885;80;21121;-56
2021/12/11 01:07:31;;;;;;;6.35;5.75;;;;;;;8.22;84.52;99295.45;1768433;80;20986;-59
2021/12/11 01:10:00;;;;;;;7.28;6.58;;;;;;;8.23;84.54;99294.52;1822961;77;21085;-56
2021/12/11 01:12:42;;;;;;;7.40;6.87;;;;;;;8.23;84.53;99290.48;1821328;77;21327;-55
2021/12/11 01:15:24;;;;;;;9.63;6.75;;;;;;;8.18;84.47;99301.00;1821898;77;21519;-59
2021/12/11 01:18:10;;;;;;;7.83;6.97;;;;;;;8.14;84.54;99297.61;1825320;77;21210;-55
2021/12/11 01:21:05;;;;;;;9.38;7.08;;;;;;;8.08;84.65;99288.48;1819076;77;21419;-54
2021/12/11 01:23:45;;;;;;;10.18;7.05;;;;;;;8.06;84.82;99291.73;1820197;77;20973;-54
2021/12/11 01:25:56;;;;;;;10.58;7.67;;;;;;;8.04;84.96;99293.59;1821399;77;21040;-56
2021/12/11 01:28:22;;;;;;;8.48;7.25;;;;;;;8.03;85.07;99293.19;1821743;77;21048;-58
2021/12/11 01:30:48;;;;;;;10.55;8.35;;;;;;;8.02;85.14;99296.81;1820694;77;21238;-56
2021/12/11 01:33:15;;;;;;;12.18;8.58;;;;;;;7.99;85.24;99298.31;1821685;77;21051;-56
2021/12/11 01:35:41;;;;;;;8.83;7.87;;;;;;;7.96;85.36;99294.41;1821854;77;21046;-56
2021/12/11 01:38:12;;;;;;;8.95;8.20;;;;;;;7.95;85.44;99295.35;1818560;77;21455;-55
2021/12/11 01:40:39;;;;;;;10.38;7.80;;;;;;;7.93;85.49;99294.54;1822996;77;20925;-59
2021/12/11 01:43:06;;;;;;;8.70;7.90;;;;;;;7.90;85.68;99292.89;1827110;77;21804;-56
2021/12/11 01:45:33;;;;;;;13.72;8.95;;;;;;;7.91;85.79;99301.80;1819033;77;21055;-56
2021/12/11 01:47:59;;;;;;;12.85;9.53;;;;;;;7.91;85.91;99291.92;1819568;77;21037;-59
2021/12/11 01:50:37;;;;;;;12.13;10.35;;;;;;;7.92;85.96;99290.12;1823363;77;21067;-57
2021/12/11 01:53:24;;;;;;;12.20;10.13;;;;;;;7.91;86.12;99287.06;1825212;77;21453;-58
2021/12/11 01:56:11;;;;;;;13.00;11.15;;;;;;;7.91;86.16;99281.20;1820931;77;21188;-57
2021/12/11 01:58:44;;;;;;;14.55;10.70;;;;;;;7.89;86.21;99290.27;1824476;77;21057;-58
2021/12/11 02:01:19;;;;;;;13.72;11.05;;;;;;;7.88;86.22;99288.06;1824276;77;21048;-58
2021/12/11 02:03:46;;;;;;;12.23;9.93;;;;;;;7.88;86.34;99295.23;1822969;77;21088;-57
2021/12/11 02:06:12;;;;;;;12.18;9.90;;;;;;;7.86;86.37;99291.27;1801651;77;21029;-57
2021/12/11 02:08:40;;;;;;;11.48;10.13;;;;;;;7.85;86.45;99294.89;1824047;77;21092;-57
2021/12/11 02:11:14;;;;;;;10.38;8.95;;;;;;;7.86;86.50;99294.42;1818575;77;21053;-58
2021/12/11 02:13:47;;;;;;;12.82;10.98;;;;;;;7.86;86.57;99295.29;1822700;77;21045;-57
2021/12/11 02:16:26;;;;;;;12.93;11.50;;;;;;;7.88;86.57;99305.95;1819696;77;21040;-55
2021/12/11 02:18:58;;;;;;;12.65;11.45;;;;;;;7.85;86.64;99312.30;1818504;77;21120;-58
2021/12/11 02:21:36;;;;;;;12.33;11.08;;;;;;;7.84;86.67;99305.67;1821775;77;21465;-58
2021/12/11 02:24:07;;;;;;;11.28;10.10;;;;;;;7.84;86.69;99312.36;1817780;77;21064;-58
2021/12/11 02:26:37;;;;;;;11.28;9.18;;;;;;;7.82;86.71;99317.81;1819554;77;21041;-59
2021/12/11 02:29:09;;;;;;;10.53;9.00;;;;;;;7.81;86.81;99317.41;1822679;77;21503;-57
2021/12/11 02:31:42;;;;;;;10.68;8.88;;;;;;;7.83;86.90;99328.03;1818047;77;21041;-58
2021/12/11 02:34:17;;;;;;;13.35;9.70;;;;;;;7.85;86.92;99318.13;1826138;77;21080;-58
2021/12/11 02:36:53;;;;;;;9.50;8.55;;;;;;;7.86;86.98;99318.06;1824112;77;21274;-57
2021/12/11 02:39:33;;;;;;;13.05;11.25;;;;;;;7.88;86.98;99313.98;1828955;77;20851;-57
2021/12/11 02:42:20;;;;;;;15.70;12.58;;;;;;;7.87;87.02;99310.44;1824228;77;21713;-59
2021/12/11 02:44:55;;;;;;;16.12;11.75;;;;;;;7.86;86.97;99313.17;1825547;77;20946;-59
2021/12/11 02:47:33;;;;;;;15.40;10.82;;;;;;;7.83;86.97;99308.81;1828423;77;21043;-59
2021/12/11 02:50:23;;;;;;;11.28;9.18;;;;;;;7.84;87.04;99311.89;1825163;77;21025;-59
2021/12/11 02:53:00;;;;;;;10.93;9.83;;;;;;;7.82;87.13;99303.55;1820812;77;21052;-59
2021/12/11 02:55:44;;;;;;;9.70;8.55;;;;;;;7.82;87.20;99295.52;1822479;77;21029;-56
2021/12/11 02:58:19;;;;;;;9.63;8.68;;;;;;;7.83;87.29;99300.77;1791572;77;21392;-57
2021/12/11 03:01:02;;;;;;;9.05;8.00;;;;;;;7.84;87.29;99303.86;1762702;80;21250;-58
2021/12/11 03:03:35;;;;;;;11.08;9.13;;;;;;;7.85;87.34;99302.92;1763097;80;20891;-57
2021/12/11 03:06:10;;;;;;;12.82;9.25;;;;;;;7.87;87.39;99298.84;1768223;79;20915;-58
2021/12/11 03:08:32;;;;;;;10.80;9.48;;;;;;;7.89;87.39;99296.97;1763103;80;20966;-57
2021/12/11 03:11:03;;;;;;;11.03;9.83;;;;;;;7.90;87.32;99301.40;1766691;80;21016;-58
2021/12/11 03:13:31;;;;;;;10.08;8.35;;;;;;;7.92;87.26;99298.16;1766687;80;21821;-56
2021/12/11 03:15:58;;;;;;;9.25;8.35;;;;;;;7.94;87.19;99309.69;1765557;80;20922;-58
2021/12/11 03:18:26;;;;;;;7.62;6.95;;;;;;;7.93;87.16;99296.75;1765096;80;20958;-58
2021/12/11 03:20:53;;;;;;;9.78;6.45;;;;;;;7.94;87.13;99293.14;1764421;80;20914;-57
2021/12/11 03:23:19;;;;;;;8.83;6.75;;;;;;;7.95;87.14;99300.71;1762533;80;21697;-58
2021/12/11 03:25:46;;;;;;;6.95;6.08;;;;;;;7.96;87.13;99295.75;1762264;80;22402;-57
2021/12/11 03:28:14;;;;;;;9.05;8.18;;;;;;;7.96;87.00;99297.97;1764083;80;20986;-58
2021/12/11 03:30:45;;;;;;;13.90;8.78;;;;;;;7.95;86.91;99295.35;1760320;80;20883;-58
2021/12/11 03:33:15;;;;;;;14.68;8.93;;;;;;;7.93;86.93;99299.44;1761318;80;20908;-59
2021/12/11 03:35:43;;;;;;;9.38;7.87;;;;;;;7.92;86.87;99296.81;1766255;80;21021;-56
2021/12/11 03:38:09;;;;;;;10.35;7.90;;;;;;;7.91;86.86;99295.94;1761913;80;21095;-58
2021/12/11 03:40:36;;;;;;;9.80;7.33;;;;;;;7.90;86.87;99290.21;1761955;80;21096;-59
2021/12/11 03:43:08;;;;;;;7.17;6.55;;;;;;;7.89;86.88;99288.94;1760654;80;21104;-57
2021/12/11 03:45:36;;;;;;;11.40;6.85;;;;;;;7.88;86.93;99284.51;1767643;80;20954;-57
2021/12/11 03:48:19;;;;;;;8.55;6.17;;;;;;;7.89;86.89;99283.11;1766852;80;20970;-58
2021/12/11 03:50:46;;;;;;;8.63;6.40;;;;;;;7.89;86.86;99277.75;1764850;80;20902;-57
2021/12/11 03:53:14;;;;;;;7.78;7.17;;;;;;;7.92;86.88;99287.44;1760606;80;21443;-57
2021/12/11 03:55:45;;;;;;;9.48;8.05;;;;;;;7.94;86.93;99281.55;1764601;80;21060;-58
2021/12/11 03:58:11;;;;;;;9.95;7.90;;;;;;;7.95;86.80;99284.16;1765363;80;21034;-58
2021/12/11 04:00:52;;;;;;;9.48;8.35;;;;;;;7.92;86.71;99282.08;1762241;80;21080;-57
2021/12/11 04:03:21;;;;;;;8.08;7.42;;;;;;;7.90;86.63;99276.81;1759717;80;21797;-58
2021/12/11 04:05:48;;;;;;;10.48;7.30;;;;;;;7.89;86.59;99274.20;1767571;80;21522;-57
2021/12/11 04:08:19;;;;;;;10.20;6.87;;;;;;;7.87;86.59;99280.09;1821388;77;21538;-57
2021/12/11 04:10:47;;;;;;;10.32;7.70;;;;;;;7.84;86.61;99274.85;1820281;77;21136;-59
2021/12/11 04:13:14;;;;;;;9.73;7.12;;;;;;;7.83;86.58;99269.96;1824040;77;21057;-57
2021/12/11 04:15:42;;;;;;;9.40;6.85;;;;;;;7.83;86.57;99269.09;1823972;77;21165;-57
2021/12/11 04:18:09;;;;;;;7.85;7.08;;;;;;;7.83;86.57;99265.07;1823171;77;20994;-57
2021/12/11 04:20:37;;;;;;;8.03;7.22;;;;;;;7.83;86.53;99281.14;1823151;77;20910;-58
2021/12/11 04:23:04;;;;;;;11.03;8.03;;;;;;;7.82;86.47;99269.59;1823303;77;20985;-58
2021/12/11 04:25:31;;;;;;;11.05;8.73;;;;;;;7.79;86.49;99279.56;1822798;77;21056;-57
2021/12/11 04:27:58;;;;;;;8.75;7.03;;;;;;;7.78;86.45;99285.38;1824589;77;21175;-57
2021/12/11 04:30:25;;;;;;;7.92;7.03;;;;;;;7.77;86.42;99276.94;1821516;77;21198;-59
2021/12/11 04:32:52;;;;;;;12.45;8.45;;;;;;;7.75;86.50;99267.22;1823628;77;21018;-57
2021/12/11 04:35:19;;;;;;;8.60;7.80;;;;;;;7.75;86.57;99269.90;1820153;77;21097;-58
2021/12/11 04:37:45;;;;;;;8.35;7.53;;;;;;;7.77;86.55;99284.11;1820650;77;21061;-58
2021/12/11 04:40:17;;;;;;;7.80;6.45;;;;;;;7.76;86.54;99287.72;1818524;77;21077;-58
2021/12/11 04:42:55;;;;;;;10.00;7.62;;;;;;;7.75;86.57;99280.61;1822846;77;21524;-57
2021/12/11 04:45:29;;;;;;;9.73;7.62;;;;;;;7.78;86.55;99286.72;1820951;77;22221;-58
2021/12/11 04:48:01;;;;;;;8.35;6.62;;;;;;;7.79;86.54;99294.30;1821646;77;21109;-58
2021/12/11 04:50:36;;;;;;;11.35;9.10;;;;;;;7.78;86.54;99293.89;1823235;77;21322;-58
2021/12/11 04:52:59;;;;;;;10.18;7.70;;;;;;;7.78;86.55;99296.56;1826504;77;21019;-58
2021/12/11 04:55:46;;;;;;;8.30;7.33;;;;;;;7.78;86.54;99293.89;1817306;77;21488;-58
2021/12/11 05:01:00;;;;;;;8.68;7.85;;;;;;;7.78;86.45;99293.89;1820961;77;21061;-56
2021/12/11 05:03:44;;;;;;;7.83;7.12;;;;;;;7.78;86.43;99283.17;1818080;77;21060;-58
2021/12/11 05:05:55;;;;;;;6.97;6.37;;;;;;;7.80;86.40;99280.84;1817514;77;22386;-57
2021/12/11 05:10:43;;;;;;;9.77;8.47;;;;;;;;;;1860675;75;23377;-57
2021/12/11 05:13:06;;;;;;;7.70;6.97;;;;;;;7.82;86.29;99292.36;1834996;77;21108;-56
2021/12/11 05:15:39;;;;;;;11.03;7.90;;;;;;;7.81;86.24;99295.98;1838203;77;21167;-56
2021/12/11 05:18:10;;;;;;;8.53;7.70;;;;;;;7.81;86.21;99289.75;1837656;77;20931;-58
2021/12/11 05:20:37;;;;;;;7.75;6.85;;;;;;;7.79;86.21;99284.45;1839011;77;20871;-56
2021/12/11 05:23:04;;;;;;;8.13;6.78;;;;;;;7.77;86.21;99282.77;1838721;76;20863;-58
2021/12/11 05:25:30;;;;;;;8.43;7.62;;;;;;;7.77;86.30;99284.11;1835768;77;21045;-58
2021/12/11 05:27:57;;;;;;;11.18;8.73;;;;;;;7.76;86.33;99287.72;1833076;77;21829;-57
2021/12/11 05:30:28;;;;;;;12.13;8.28;;;;;;;7.77;86.39;99283.64;1840725;77;20962;-57
2021/12/11 05:32:58;;;;;;;7.50;6.80;;;;;;;7.79;86.41;99271.52;1840949;76;20976;-58
2021/12/11 05:35:23;;;;;;;12.23;9.45;;;;;;;7.82;86.51;99271.39;1841149;77;22643;-58
2021/12/11 05:37:49;;;;;;;13.80;9.50;;;;;;;7.83;86.43;99283.36;1832033;76;21650;-57
2021/12/11 05:40:18;;;;;;;8.98;7.85;;;;;;;7.80;86.43;99270.12;1833487;77;21087;-58
2021/12/11 05:42:46;;;;;;;8.70;7.87;;;;;;;7.80;86.45;99275.48;1838565;76;20855;-57
2021/12/11 05:45:12;;;;;;;8.95;7.70;;;;;;;7.79;86.44;99279.56;1840224;77;20882;-57
2021/12/11 05:47:38;;;;;;;11.80;8.60;;;;;;;7.77;86.49;99275.59;1841128;76;20941;-57
2021/12/11 05:50:08;;;;;;;9.48;6.62;;;;;;;7.78;86.59;99277.81;1840041;77;20910;-59
2021/12/11 05:52:36;;;;;;;7.83;7.03;;;;;;;7.80;86.62;99273.27;1839676;76;21105;-58
2021/12/11 05:55:05;;;;;;;14.98;9.53;;;;;;;7.80;86.60;99274.14;1840317;76;20855;-59
2021/12/11 05:57:34;;;;;;;16.30;11.03;;;;;;;7.80;86.60;99286.20;1824714;77;20937;-59
2021/12/11 06:00:01;;;;;;;9.85;7.87;;;;;;;7.82;86.65;99274.08;1822609;77;21889;-58
2021/12/11 06:02:27;;;;;;;13.10;9.38;;;;;;;7.82;86.66;99284.80;1821485;77;20961;-57
2021/12/11 06:04:56;;;;;;;13.65;10.08;;;;;;;7.82;86.69;99286.13;1820535;77;21333;-57
2021/12/11 06:07:25;;;;;;;17.10;11.05;;;;;;;7.82;86.68;99279.44;1822525;77;20921;-57
2021/12/11 06:10:03;;;;;;;13.32;10.10;;;;;;;7.80;86.67;99284.86;1826429;77;20902;-58
2021/12/11 06:12:29;;;;;;;13.78;8.60;;;;;;;7.78;86.65;99286.72;1822611;77;20945;-57
2021/12/11 06:14:55;;;;;;;10.35;6.62;;;;;;;7.79;86.69;99284.92;1821792;77;20964;-59
2021/12/11 06:17:25;;;;;;;8.50;6.67;;;;;;;7.81;86.69;99279.03;1823323;77;21423;-57
2021/12/11 06:19:54;;;;;;;8.55;7.47;;;;;;;7.80;86.58;99267.91;1823534;77;21987;-58
2021/12/11 06:22:23;;;;;;;8.80;7.90;;;;;;;7.81;86.54;99275.02;1819697;77;21695;-58
2021/12/11 06:24:49;;;;;;;6.80;6.25;;;;;;;7.83;86.43;99279.80;1822287;77;20921;-56
2021/12/11 06:27:15;;;;;;;10.03;7.28;;;;;;;7.82;86.38;99273.61;1819811;77;20898;-57
2021/12/11 06:29:42;;;;;;;8.80;6.80;;;;;;;7.83;86.27;99279.34;1750224;80;22291;-57
2021/12/11 06:32:08;;;;;;;6.55;5.92;;;;;;;7.83;86.21;99275.78;1781708;78;21466;-58
2021/12/11 06:34:36;;;;;;;6.72;5.35;;;;;;;7.85;86.12;99289.99;1774721;78;22328;-57
2021/12/11 06:37:05;;;;;;;6.67;5.53;;;;;;;7.85;86.05;99281.48;1782100;79;21306;-58
2021/12/11 06:39:31;;;;;;;6.25;5.70;;;;;;;7.86;85.91;99289.06;1748353;80;21482;-57
2021/12/11 06:42:00;;;;;;;8.30;7.17;;;;;;;7.86;85.85;99296.62;1746092;79;22376;-57
2021/12/11 06:44:29;;;;;;;7.65;6.70;;;;;;;7.88;85.78;99295.23;1748304;80;21067;-58
2021/12/11 06:46:58;;;;;;;8.90;6.95;;;;;;;7.86;85.56;99301.98;1748327;79;21131;-59
2021/12/11 06:49:27;;;;;;;7.78;6.33;;;;;;;7.83;85.42;99295.41;1747166;79;21080;-59
2021/12/11 06:51:54;;;;;;;7.62;6.37;;;;;;;7.83;85.23;99288.72;1754426;79;21162;-58
2021/12/11 06:54:20;;;;;;;13.88;9.28;;;;;;;7.80;85.14;99298.25;1756008;80;21135;-58
2021/12/11 06:56:47;;;;;;;14.73;9.50;;;;;;;7.81;85.09;99291.09;1753969;79;21081;-56
2021/12/11 06:59:14;;;;;;;16.42;10.75;;;;;;;7.81;85.02;99300.00;1756147;79;21001;-57
2021/12/11 07:01:41;;;;;;;15.63;9.63;;;;;;;7.83;84.92;99294.55;1751077;80;21077;-56
2021/12/11 07:04:11;;;;;;;15.28;10.90;;;;;;;7.83;84.83;99295.41;1751699;80;21364;-56
2021/12/11 07:06:42;;;;;;;14.15;10.00;;;;;;;7.82;84.79;99291.02;1749554;80;22279;-59
2021/12/11 07:09:09;;;;;;;10.75;9.20;;;;;;;7.80;84.71;99294.23;1751237;80;21045;-57
2021/12/11 07:11:39;;;;;;;8.65;7.58;;;;;;;7.81;84.56;99293.77;1750826;80;21108;-56
2021/12/11 07:14:05;;;;;;;7.90;7.20;;;;;;;7.81;84.48;99286.59;1755627;79;21045;-58
2021/12/11 07:16:31;;;;;;;8.23;7.20;;;;;;;7.80;84.40;99293.36;1750272;80;21308;-56
2021/12/11 07:18:57;;;;;;;6.65;6.05;;;;;;;7.82;84.35;99304.42;1754864;80;21596;-57
2021/12/11 07:21:23;;;;;;;10.05;7.20;;;;;;;7.84;84.30;99296.28;1753567;79;21653;-57
2021/12/11 07:23:50;;;;;;;6.25;5.67;;;;;;;7.86;84.24;99290.40;1710116;79;21040;-58
2021/12/11 07:26:22;;;;;;;7.22;6.62;;;;;;;7.86;84.15;99299.31;1749968;79;21045;-57
2021/12/11 07:28:52;;;;;;;10.23;8.98;;;;;;;7.86;84.11;99301.12;1753633;79;21001;-57
2021/12/11 07:31:19;;;;;;;10.10;7.78;;;;;;;7.85;84.02;99299.37;1757439;79;21134;-57
2021/12/11 07:33:46;;;;;;;9.20;7.60;;;;;;;7.86;83.97;99304.67;1753703;80;21029;-58
2021/12/11 07:36:12;;;;;;;9.50;7.78;;;;;;;7.85;83.92;99298.91;1749682;80;21127;-57
2021/12/11 07:38:40;;;;;;;10.35;6.35;;;;;;;7.85;83.93;99306.95;1755589;79;21089;-57
2021/12/11 07:41:09;;;;;;;9.48;8.55;;;;;;;7.85;83.93;99306.07;1752940;79;21061;-57
2021/12/11 07:43:36;;;;;;;11.73;8.85;;;;;;;7.86;83.91;99307.81;1747707;79;22621;-59
2021/12/11 07:46:02;;;;;;;12.88;9.75;;;;;;;7.85;83.85;99296.69;1751662;79;21683;-57
2021/12/11 07:48:29;;;;;;;9.63;8.15;;;;;;;7.84;83.80;99298.50;1753061;80;21340;-57
2021/12/11 07:50:56;;;;;;;7.50;6.20;;;;;;;7.85;83.74;99297.56;1751977;80;21656;-57
2021/12/11 07:53:23;;;;;;;6.78;5.92;;;;;;;7.85;83.70;99292.67;1755864;79;20953;-57
2021/12/11 07:55:49;;;;;;;7.35;5.25;;;;;;;7.87;83.67;99299.72;1752830;79;21015;-58
2021/12/11 07:58:16;;;;;;;7.85;7.03;;;;;;;7.88;83.59;99297.44;1754098;80;20966;-57
2021/12/11 08:00:43;;;;;;;7.95;6.62;;;;;;;7.89;83.55;99294.30;1750023;80;21502;-57
2021/12/11 08:03:10;;;;;;;8.73;7.10;;;;;;;7.88;83.50;99301.92;1748426;79;21056;-59
2021/12/11 08:05:37;;;;;;;11.43;7.30;;;;;;;7.87;83.44;99298.84;1753113;79;21128;-57
2021/12/11 08:08:06;;;;;;;7.75;6.40;;;;;;;7.84;83.33;99309.22;1753624;80;21146;-58
2021/12/11 08:10:34;;;;;;;7.08;6.37;;;;;;;7.84;83.36;99307.00;1757049;80;20973;-58
2021/12/11 08:13:00;;;;;;;6.72;6.12;;;;;;;7.84;83.33;99311.89;1757641;80;20914;-58
2021/12/11 08:15:27;;;;;;;7.20;6.58;;;;;;;7.85;83.34;99312.77;1757770;80;20962;-57
2021/12/11 08:17:54;;;;;;;9.78;8.05;;;;;;;7.86;83.31;99313.17;1753354;80;21033;-58
2021/12/11 08:20:25;;;;;;;10.90;7.47;;;;;;;7.82;83.23;99304.42;1749232;79;21785;-58
2021/12/11 08:22:53;;;;;;;10.03;7.75;;;;;;;7.80;83.25;99298.72;1750645;79;21587;-57
2021/12/11 08:25:25;;;;;;;9.30;7.08;;;;;;;7.79;83.26;99300.99;1753890;80;21068;-58
2021/12/11 08:27:51;;;;;;;11.12;7.87;;;;;;;7.77;83.35;99302.39;1752911;79;21116;-57
2021/12/11 08:30:18;;;;;;;11.20;6.60;;;;;;;7.76;83.43;99295.29;1751887;80;20985;-57
2021/12/11 08:32:44;;;;;;;8.15;5.67;;;;;;;7.77;83.45;99297.50;1756927;80;21983;-57
2021/12/11 08:35:13;;;;;;;7.58;6.72;;;;;;;7.77;83.51;99294.36;1755988;80;21323;-57
2021/12/11 08:37:41;;;;;;;10.08;8.35;;;;;;;7.79;83.62;99295.63;1754081;79;20945;-58
2021/12/11 08:40:12;;;;;;;9.80;7.65;;;;;;;7.78;83.64;99285.85;1752046;80;20914;-56
2021/12/11 08:42:40;;;;;;;9.78;7.97;;;;;;;7.75;83.69;99285.97;1746522;80;20910;-58
2021/12/11 08:45:09;;;;;;;8.38;7.47;;;;;;;7.74;83.78;99286.94;1754086;80;21745;-58
2021/12/11 08:47:39;;;;;;;7.30;6.60;;;;;;;7.73;83.89;99294.11;1752466;80;20862;-58
2021/12/11 08:50:09;;;;;;;7.87;6.97;;;;;;;7.72;83.96;99295.51;1758506;80;20953;-57
2021/12/11 08:52:38;;;;;;;8.35;7.05;;;;;;;7.71;84.03;99291.95;1747146;80;20907;-58
2021/12/11 08:57:29;;;;;;;8.93;7.27;;;;;;;7.74;84.22;99293.64;1857545;75;21983;-57
2021/12/11 09:00:02;;;;;;;7.72;6.95;;;;;;;7.68;84.31;99295.22;1841129;77;21407;-57
2021/12/11 09:02:39;;;;;;;7.50;6.75;;;;;;;7.65;84.35;99294.04;1839214;77;21121;-55
2021/12/11 09:05:11;;;;;;;9.70;7.20;;;;;;;7.62;84.38;99296.84;1807977;78;20879;-57
2021/12/11 09:07:46;;;;;;;7.08;6.25;;;;;;;7.59;84.41;99292.01;1759826;79;20872;-56
2021/12/11 09:10:34;;;;;;;;;;;;;;;7.57;84.49;99289.86;1779000;78;20929;-56
2021/12/11 09:13:08;;;;;;;6.12;5.47;;;;;;;7.56;84.57;99301.54;1802746;78;20107;-57
2021/12/11 09:15:40;;;;;;;5.40;4.95;;;;;;;7.51;84.91;99293.28;1772867;78;20906;-56
2021/12/11 09:18:14;;;;;;;8.98;6.70;;;;;;;7.51;84.91;99293.28;1770092;79;20982;-56
2021/12/11 09:20:51;;;;;;;8.03;7.35;;;;;;;7.52;84.69;99287.86;1774182;79;23287;-56
2021/12/11 09:23:32;;;;;;;7.03;5.67;;;;;;;7.50;84.68;99285.71;1782065;78;21081;-56
2021/12/11 09:26:06;;;;;;;9.18;6.85;;;;;;;7.49;84.66;99288.45;1773832;78;21084;-57
2021/12/11 09:28:41;;;;;;;6.12;5.17;;;;;;;7.44;84.61;99291.34;1800421;77;21427;-56
2021/12/11 09:31:19;;;;;;;6.85;6.15;;;;;;;7.40;84.67;99300.92;1784951;78;21100;-59
2021/12/11 09:33:53;;;;;;;6.22;5.53;;;;;;;7.35;84.74;99294.88;1797889;78;21064;-59
2021/12/11 09:36:27;;;;;;;7.15;6.42;;;;;;;7.35;84.86;99298.42;1777457;79;22778;-58
2021/12/11 09:39:00;;;;;;;7.62;5.75;;;;;;;7.35;84.88;99304.24;1782082;79;20949;-58
2021/12/11 09:41:25;;;;;;;11.55;6.12;;;;;;;7.34;84.89;99299.36;1781861;79;22234;-59
2021/12/11 09:43:56;;;;;;;6.63;6.03;;;;;;;7.33;84.96;99300.28;1780236;79;20953;-59
2021/12/11 09:46:31;;;;;;;12.45;7.22;;;;;;;7.32;85.00;99299.00;1781682;79;21009;-60
2021/12/11 09:48:58;;;;;;;11.90;8.65;;;;;;;7.29;85.08;99291.13;1780881;78;20994;-59
2021/12/11 09:51:28;;;;;;;8.65;6.87;;;;;;;7.30;85.12;99296.42;1777708;78;21084;-58
2021/12/11 09:53:58;;;;;;;8.00;6.33;;;;;;;7.31;85.13;99286.58;1789956;78;21527;-58
2021/12/11 09:56:36;;;;;;;7.50;6.72;;;;;;;7.31;85.20;99295.95;1783364;78;21530;-57
2021/12/11 09:59:06;;;;;;;9.23;7.20;;;;;;;7.30;85.22;99284.37;1771692;78;21063;-57
2021/12/11 10:01:36;;;;;;;10.35;7.92;;;;;;;7.29;85.20;99284.43;1802365;78;20942;-57
2021/12/11 10:04:09;;;;;;;12.95;8.93;;;;;;;7.26;85.24;99281.88;1767796;79;21488;-57
2021/12/11 10:06:51;;;;;;;15.85;9.33;;;;;;;7.24;85.31;99295.31;1786973;78;22270;-57
2021/12/11 10:09:20;;;;;;;17.48;8.50;;;;;;;7.23;85.32;99297.13;1776434;79;20870;-57
2021/12/11 10:11:54;;;;;;;14.00;7.45;;;;;;;7.23;85.29;99295.78;1775230;79;22160;-57
2021/12/11 10:14:24;;;;;;;;;;;;;;;7.24;85.27;99291.30;1773793;79;21065;-57
2021/12/11 10:16:54;;;;;;;6.92;5.85;;;;;;;7.24;85.24;99292.64;1775207;79;20478;-58
2021/12/11 10:19:21;;;;;;;10.23;7.67;;;;;;;7.21;85.16;99300.81;1775332;79;21065;-57
2021/12/11 10:21:52;;;;;;;8.70;7.75;;;;;;;7.20;85.05;99297.73;1773698;79;20933;-57
2021/12/11 10:24:23;;;;;;;11.30;7.35;;;;;;;7.16;85.02;99290.75;1774243;79;20934;-58
2021/12/11 10:26:50;;;;;;;11.00;8.25;;;;;;;7.16;85.05;99298.31;1772200;79;21040;-58
2021/12/11 10:29:17;;;;;;;8.48;6.42;;;;;;;7.14;84.86;99293.98;1776283;79;21072;-58
2021/12/11 10:31:57;;;;;;;9.58;7.20;;;;;;;7.13;84.83;99300.27;1781900;78;22883;-58
2021/12/11 10:34:26;;;;;;;12.37;6.33;;;;;;;7.13;84.71;99301.61;1775048;79;20949;-57
2021/12/11 10:37:01;;;;;;;9.18;5.67;;;;;;;7.11;84.66;99307.48;1775839;79;21533;-58
2021/12/11 10:39:27;;;;;;;7.08;5.05;;;;;;;7.10;84.64;99311.09;1778354;79;20930;-57
2021/12/11 10:41:54;;;;;;;5.47;4.92;;;;;;;7.11;84.72;99308.82;1775722;79;21040;-57
2021/12/11 10:44:26;;;;;;;4.72;3.65;;;;;;;7.10;84.79;99299.92;1776461;79;21123;-57
2021/12/11 10:46:58;;;;;;;5.80;4.83;;;;;;;7.10;84.81;99295.91;1769498;79;21199;-58
2021/12/11 10:49:25;;;;;;;6.97;4.67;;;;;;;7.10;84.82;99301.26;1774167;78;21100;-57
2021/12/11 10:52:00;;;;;;;6.75;4.90;;;;;;;7.09;84.88;99298.64;1774635;79;21028;-57
2021/12/11 10:54:27;;;;;;;6.60;5.08;;;;;;;7.09;84.91;99297.30;1774373;79;21056;-56
2021/12/11 10:56:53;;;;;;;5.35;4.65;;;;;;;7.06;84.97;99300.13;1770243;78;21078;-57
2021/12/11 10:59:30;;;;;;;5.10;4.42;;;;;;;7.05;85.05;99301.92;1769194;78;21041;-58
2021/12/11 11:02:14;;;;;;;6.83;4.30;;;;;;;7.04;85.16;99297.97;1772644;79;21072;-57
2021/12/11 11:04:44;;;;;;;4.90;4.50;;;;;;;7.01;85.23;99301.63;1769833;79;21503;-57
2021/12/11 11:07:11;;;;;;;6.83;5.37;;;;;;;7.01;85.37;99294.06;1775898;79;21052;-56
2021/12/11 11:09:38;;;;;;;7.90;4.70;;;;;;;7.01;85.45;99298.08;1777887;79;21791;-57
2021/12/11 11:12:09;;;;;;;5.05;4.55;;;;;;;7.01;85.55;99301.63;1778176;79;21514;-57
2021/12/11 11:14:37;;;;;;;8.65;5.08;;;;;;;7.01;85.55;99300.76;1777845;79;20938;-58
2021/12/11 11:17:08;;;;;;;7.87;5.35;;;;;;;7.00;85.60;99293.20;1776290;79;21346;-57
2021/12/11 11:19:37;;;;;;;7.37;4.60;;;;;;;6.98;85.71;99299.06;1772507;79;21052;-56
2021/12/11 11:22:07;;;;;;;6.05;4.70;;;;;;;6.97;85.65;99295.14;1774238;78;22325;-56
2021/12/11 11:24:38;;;;;;;5.37;2.45;;;;;;;6.94;85.73;99301.95;1773001;79;20863;-57
2021/12/11 11:27:05;;;;;;;4.50;1.57;;;;;;;6.92;85.78;99293.98;1775970;79;20964;-57
2021/12/11 11:29:31;;;;;;;1.67;1.45;;;;;;;6.93;85.82;99297.52;1771613;79;21004;-56
2021/12/11 11:32:03;;;;;;;2.20;1.32;;;;;;;6.91;85.88;99304.27;1770426;79;21510;-55
2021/12/11 11:34:31;;;;;;;2.47;1.77;;;;;;;6.90;85.87;99304.33;1777241;79;21774;-57
2021/12/11 11:36:59;;;;;;;3.62;1.60;;;;;;;6.90;85.94;99298.52;1776657;79;21480;-56
2021/12/11 11:39:27;;;;;;;2.85;1.92;;;;;;;6.89;86.00;99298.10;1778755;79;20894;-57
2021/12/11 11:41:57;;;;;;;3.80;1.85;;;;;;;6.92;86.12;99307.35;1778726;79;20926;-56
2021/12/11 11:44:26;;;;;;;2.80;2.50;;;;;;;6.92;86.14;99303.80;1775835;79;20973;-57
2021/12/11 11:46:54;;;;;;;5.10;2.75;;;;;;;6.90;86.11;99305.66;1803899;78;21081;-56
2021/12/11 11:49:20;;;;;;;3.90;2.60;;;;;;;6.88;86.10;99310.23;1802449;78;21452;-56
2021/12/11 11:51:57;;;;;;;4.30;2.65;;;;;;;6.85;86.21;99307.20;1800781;78;20904;-59
2021/12/11 11:54:26;;;;;;;5.72;2.60;;;;;;;6.83;86.34;99304.58;1799337;78;20863;-56
2021/12/11 11:57:04;;;;;;;3.15;2.55;;;;;;;6.84;86.40;99313.02;1775843;78;21356;-57
2021/12/11 11:59:31;;;;;;;7.20;5.03;;;;;;;6.83;86.47;99309.06;1769157;80;21240;-57
2021/12/11 12:02:02;;;;;;;4.15;3.37;;;;;;;6.84;86.60;99317.03;1804924;78;20933;-57